Latest Coastal Weather Observations for Darwin Harbour

IDD60701

Issued at 5:21 am CST Wednesday 27 July 2016 (issued every 10 minutes, with the page automatically refreshed every 10 minutes)

About coastal observations | Map of coastal stations | Coastal observations for NT | Marine services | Other Formats
Station Details ID: 014072 Name: DARWIN NTC AWS Lat: -12.47 Lon: 130.85 Height: 0.0 m
Data from the previous 72 hours. | See also: Recent months for locations in Northern Territory
Date/Time
CST
Temp
°C
Wind Pressure Rain since
9am
mm
Weather Cloud Vis
km
Sea
Height
m
Swell
Dir  Spd
kts
Gust
kts
hPa Trend Height
m
Period
s
Dir
27/05:00am 23.0 ENE 2 4 1012.5 - - - - - - - - -
27/04:30am 23.2 NE 3 5 1012.3 - - - - - - - - -
27/04:00am 23.3 ENE 2 4 1012.2 - - - - - - - - -
27/03:30am 23.7 ENE 3 5 1012.1 - - - - - - - - -
27/03:00am 23.9 ENE 3 5 1012.3 - - - - - - - - -
27/02:30am 24.0 NE 3 4 1012.2 - - - - - - - - -
27/02:00am 24.5 ENE 2 3 1012.3 - - - - - - - - -
27/01:30am 24.6 ENE 2 3 1012.4 - - - - - - - - -
27/01:00am 25.1 SW 2 4 1012.6 - - - - - - - - -
27/12:30am 25.4 SW 5 6 1012.7 - - - - - - - - -
27/12:00am 25.6 SW 4 6 1012.8 - - - - - - - - -
 
Date/Time
CST
Temp
°C
Wind Pressure Rain since
9am
mm
Weather Cloud Vis
km
Sea
Height
m
Swell
Dir  Spd
kts
Gust
kts
hPa Trend Height
m
Period
s
Dir
26/11:30pm 25.4 SW 6 9 1012.8 - - - - - - - - -
26/11:00pm 25.8 SW 6 8 1012.8 - - - - - - - - -
26/10:30pm 25.4 SW 4 14 1012.7 - - - - - - - - -
26/10:00pm 26.6 SE 1 3 1012.4 - - - - - - - - -
26/09:30pm 26.5 CALM 0 1 1012.3 - - - - - - - - -
26/09:00pm 27.2 NE 2 3 1012.0 - - - - - - - - -
26/08:30pm 27.4 NE 5 8 1011.7 - - - - - - - - -
26/08:00pm 27.7 NE 5 10 1011.2 - - - - - - - - -
26/07:30pm 27.9 NE 5 9 1010.9 - - - - - - - - -
26/07:00pm 28.4 NNE 4 7 1010.5 - - - - - - - - -
26/06:30pm 28.8 N 4 7 1010.1 - - - - - - - - -
26/06:00pm 29.1 N 5 10 1009.8 - - - - - - - - -
26/05:30pm 28.9 NNW 7 13 1009.4 - - - - - - - - -
26/05:00pm 28.9 N 10 15 1009.1 - - - - - - - - -
26/04:30pm 30.0 NW 4 9 1009.0 - - - - - - - - -
26/04:00pm 31.1 E 7 11 1009.0 - - - - - - - - -
26/03:30pm 31.6 E 10 14 1009.1 - - - - - - - - -
26/03:00pm 31.2 E 8 10 1009.4 - - - - - - - - -
26/02:30pm 31.0 E 5 7 1009.9 - - - - - - - - -
26/02:00pm 29.6 E 10 13 1010.4 - - - - - - - - -
26/01:30pm 29.9 E 11 13 1011.1 - - - - - - - - -
26/01:00pm 29.3 ESE 11 13 1011.5 - - - - - - - - -
26/12:30pm 29.0 ESE 11 13 1012.0 - - - - - - - - -
26/12:00pm 28.4 ESE 13 15 1012.3 - - - - - - - - -
26/11:30am 27.8 ESE 12 15 1012.8 - - - - - - - - -
26/11:00am 27.6 ESE 13 17 1013.4 - - - - - - - - -
26/10:30am 27.2 ESE 16 20 1013.5 - - - - - - - - -
26/10:00am 25.8 ESE 8 11 1013.7 - - - - - - - - -
26/09:30am 25.2 E 6 9 1013.7 - - - - - - - - -
26/09:00am 25.1 ESE 4 5 1013.6 - - - - - - - - -
26/08:30am 25.0 E 4 5 1013.4 - - - - - - - - -
26/08:00am 24.7 ENE 3 4 1013.1 - - - - - - - - -
26/07:30am 24.7 ESE 2 3 1012.7 - - - - - - - - -
26/07:00am 24.6 ESE 3 4 1012.5 - - - - - - - - -
26/06:30am 24.4 ESE 3 4 1012.3 - - - - - - - - -
26/06:00am 24.0 E 2 3 1012.2 - - - - - - - - -
26/05:30am 23.8 ENE 2 3 1012.2 - - - - - - - - -
26/05:00am 24.1 NE 2 4 1012.1 - - - - - - - - -
26/04:30am 24.0 NE 2 4 1011.9 - - - - - - - - -
26/04:00am 24.1 NE 3 4 1012.0 - - - - - - - - -
26/03:30am 24.4 ENE 2 4 1011.9 - - - - - - - - -
26/03:00am 24.3 ENE 2 4 1011.9 - - - - - - - - -
26/02:30am 24.3 ENE 2 4 1012.0 - - - - - - - - -
26/02:00am 24.5 ENE 1 2 1012.0 - - - - - - - - -
26/01:30am 24.7 NE 1 2 1012.1 - - - - - - - - -
26/01:00am 24.9 ENE 3 5 1012.3 - - - - - - - - -
26/12:30am 25.4 ESE 2 3 1012.2 - - - - - - - - -
26/12:00am 25.4 SSE 1 3 1012.3 - - - - - - - - -
 
Date/Time
CST
Temp
°C
Wind Pressure Rain since
9am
mm
Weather Cloud Vis
km
Sea
Height
m
Swell
Dir  Spd
kts
Gust
kts
hPa Trend Height
m
Period
s
Dir
25/11:30pm 25.6 SW 2 3 1012.4 - - - - - - - - -
25/11:00pm 25.8 WSW 2 3 1012.4 - - - - - - - - -
25/10:30pm 25.6 W 4 5 1012.3 - - - - - - - - -
25/10:00pm 25.8 W 3 5 1012.1 - - - - - - - - -
25/09:30pm 25.9 W 4 5 1011.8 - - - - - - - - -
25/09:00pm 26.0 W 4 5 1011.6 - - - - - - - - -
25/08:30pm 26.0 W 5 7 1011.1 - - - - - - - - -
25/08:00pm 26.3 WNW 5 7 1010.7 - - - - - - - - -
25/07:30pm 26.8 W 4 7 1010.4 - - - - - - - - -
25/07:00pm 26.9 WNW 5 8 1010.3 - - - - - - - - -
25/06:30pm 27.1 WNW 6 9 1010.1 - - - - - - - - -
25/06:00pm 27.2 WNW 9 13 1009.7 - - - - - - - - -
25/05:30pm 28.7 NNW 5 10 1009.3 - - - - - - - - -
25/05:00pm 28.7 NW 7 12 1009.3 - - - - - - - - -
25/04:30pm 28.9 NW 6 12 1009.2 - - - - - - - - -
25/04:00pm 28.7 NW 7 14 1009.2 - - - - - - - - -
25/03:30pm 29.3 WNW 7 12 1009.3 - - - - - - - - -
25/03:00pm 29.3 WNW 5 9 1009.4 - - - - - - - - -
25/02:30pm 30.5 ESE 7 9 1009.7 - - - - - - - - -
25/02:00pm 29.6 ESE 7 9 1010.2 - - - - - - - - -
25/01:30pm 29.9 S 1 3 1010.8 - - - - - - - - -
25/01:00pm 30.0 ESE 9 12 1011.2 - - - - - - - - -
25/12:30pm 29.5 E 10 14 1011.7 - - - - - - - - -
25/12:00pm 27.6 SW 3 6 1012.1 - - - - - - - - -
25/11:30am 27.6 ESE 3 5 1012.5 - - - - - - - - -
25/11:00am 26.7 SW 2 3 1012.5 - - - - - - - - -
25/10:30am 26.5 SSW 1 3 1013.1 - - - - - - - - -
25/10:00am 25.6 SE 2 4 1013.4 - - - - - - - - -
25/09:30am 25.0 E 4 5 1013.4 - - - - - - - - -
25/09:00am 24.6 ESE 4 5 1013.2 - - - - - - - - -
25/08:30am 24.2 ESE 4 5 1012.9 - - - - - - - - -
25/08:00am 24.3 ESE 5 6 1012.6 - - - - - - - - -
25/07:30am 24.6 SSE 3 4 1012.2 - - - - - - - - -
25/07:00am 24.6 SE 1 3 1011.9 - - - - - - - - -
25/06:30am 24.4 SE 1 2 1011.8 - - - - - - - - -
25/06:00am 24.3 E 1 2 1011.5 - - - - - - - - -
25/05:30am 24.3 SE 1 3 1011.4 - - - - - - - - -
25/05:00am 24.4 SE 2 3 1011.3 - - - - - - - - -
25/04:30am 24.3 SSE 2 3 1011.1 - - - - - - - - -
25/04:00am 24.6 SSW 2 5 1011.2 - - - - - - - - -
25/03:30am 24.8 SE 2 3 1011.3 - - - - - - - - -
25/03:00am 24.8 ENE 2 3 1011.3 - - - - - - - - -
25/02:30am 24.9 ENE 2 3 1011.4 - - - - - - - - -
25/02:00am 25.6 ENE 2 3 1011.6 - - - - - - - - -
25/01:30am 25.7 ENE 1 2 1011.7 - - - - - - - - -
25/01:00am 25.9 CALM 0 1 1011.8 - - - - - - - - -
25/12:30am 26.3 NW 1 1 1011.9 - - - - - - - - -
25/12:00am 26.3 NNE 1 4 1011.7 - - - - - - - - -
 
Date/Time
CST
Temp
°C
Wind Pressure Rain since
9am
mm
Weather Cloud Vis
km
Sea
Height
m
Swell
Dir  Spd
kts
Gust
kts
hPa Trend Height
m
Period
s
Dir
24/11:30pm 26.3 NE 2 4 1012.0 - - - - - - - - -
24/11:00pm 26.4 NE 3 5 1012.1 - - - - - - - - -
24/10:30pm 26.4 ENE 2 3 1012.3 - - - - - - - - -
24/10:00pm 26.4 E 3 4 1012.3 - - - - - - - - -
24/09:30pm 26.0 E 3 5 1012.1 - - - - - - - - -
24/09:00pm 26.5 ENE 1 3 1011.8 - - - - - - - - -
24/08:30pm 27.1 WNW 2 4 1011.4 - - - - - - - - -
24/08:00pm 26.6 WSW 5 6 1010.5 - - - - - - - - -
24/07:30pm 26.6 WSW 5 6 1010.2 - - - - - - - - -
24/07:00pm 26.6 W 4 7 1010.0 - - - - - - - - -
24/06:30pm 27.6 WNW 3 5 1009.7 - - - - - - - - -
24/06:00pm 28.3 NNW 5 8 1009.4 - - - - - - - - -
24/05:30pm 27.9 NNW 6 11 1009.2 - - - - - - - - -
24/05:00pm 28.1 NW 6 13 1009.1 - - - - - - - - -
24/04:30pm 27.8 NNW 8 14 1008.9 - - - - - - - - -
24/04:00pm 28.6 NW 7 13 1008.9 - - - - - - - - -
24/03:30pm 28.8 NW 8 12 1009.0 - - - - - - - - -
24/03:00pm 29.5 NW 6 10 1009.2 - - - - - - - - -
24/02:30pm 28.7 NNW 7 11 1009.5 - - - - - - - - -
24/02:00pm 29.0 NW 5 8 1010.0 - - - - - - - - -
24/01:30pm 28.8 WNW 7 10 1010.5 - - - - - - - - -
24/01:00pm 27.5 WNW 7 8 1011.2 - - - - - - - - -
24/12:30pm 26.9 W 5 8 1011.6 - - - - - - - - -
24/12:00pm 26.9 W 5 7 1012.1 - - - - - - - - -
24/11:30am 27.9 SSE 2 5 1012.4 - - - - - - - - -
24/11:00am 26.9 SSE 4 4 1012.9 - - - - - - - - -
24/10:30am 26.2 SSE 3 3 1013.2 - - - - - - - - -
24/10:00am 25.8 SE 2 2 1013.3 - - - - - - - - -
24/09:30am 25.7 ESE 2 3 1013.4 - - - - - - - - -
24/09:00am 25.3 SE 2 3 1013.2 - - - - - - - - -
24/08:30am 25.3 SE 2 3 1012.8 - - - - - - - - -
24/08:00am 25.4 ESE 1 2 1012.5 - - - - - - - - -
24/07:30am 24.7 E 1 2 1012.1 - - - - - - - - -
24/07:00am 24.4 CALM 0 1 1011.8 - - - - - - - - -
24/06:30am 24.2 NE 1 2 1011.5 - - - - - - - - -
24/06:00am 24.1 ENE 2 3 1011.3 - - - - - - - - -
24/05:30am 24.2 ENE 1 3 1011.2 - - - - - - - - -

Other Formats:

Comma delimited format used in spreadsheet applications
http://www.bom.gov.au/fwo/IDD60701/IDD60701.95122.axf

JavaScript Object Notation format (JSON) in row-major order
http://www.bom.gov.au/fwo/IDD60701/IDD60701.95122.json